createdAt,value
2018-03-06T00:01:47.214Z,7.53
2018-03-06T00:04:14.929Z,8.10
2018-03-06T00:06:42.470Z,6.87
2018-03-06T00:09:09.989Z,5.43
2018-03-06T00:11:37.507Z,6.50
2018-03-06T00:14:05.619Z,8.03
2018-03-06T00:16:33.199Z,7.30
2018-03-06T00:19:00.885Z,5.97
2018-03-06T00:21:28.495Z,6.27
2018-03-06T00:23:56.073Z,6.70
2018-03-06T00:26:24.463Z,6.67
2018-03-06T00:28:53.139Z,6.23
2018-03-06T00:31:20.792Z,7.53
2018-03-06T00:33:48.358Z,5.07
2018-03-06T00:36:15.900Z,7.00
2018-03-06T00:38:43.568Z,4.27
2018-03-06T00:41:11.177Z,4.83
2018-03-06T00:43:38.749Z,5.13
2018-03-06T00:46:06.371Z,5.47
2018-03-06T00:48:33.964Z,7.87
2018-03-06T00:51:01.511Z,5.57
2018-03-06T00:53:29.070Z,5.37
2018-03-06T00:55:56.640Z,5.00
2018-03-06T00:58:24.234Z,5.70
2018-03-06T01:00:51.983Z,7.47
2018-03-06T01:03:19.501Z,5.53
2018-03-06T01:05:47.046Z,5.53
2018-03-06T01:08:14.681Z,4.70
2018-03-06T01:10:42.248Z,4.70
2018-03-06T01:13:09.866Z,5.17
2018-03-06T01:15:37.448Z,4.60
2018-03-06T01:18:05.030Z,5.40
2018-03-06T01:20:32.611Z,5.50
2018-03-06T01:23:00.428Z,5.43
2018-03-06T01:25:28.017Z,4.20
2018-03-06T01:27:55.672Z,5.60
2018-03-06T01:30:23.278Z,5.33
2018-03-06T01:32:50.847Z,5.23
2018-03-06T01:35:18.441Z,5.87
2018-03-06T01:37:45.988Z,6.93
2018-03-06T01:40:13.545Z,5.90
2018-03-06T01:42:41.095Z,5.20
2018-03-06T01:45:08.637Z,6.00
2018-03-06T01:47:36.225Z,6.43
2018-03-06T01:50:03.856Z,4.47
2018-03-06T01:52:31.470Z,5.27
2018-03-06T01:54:59.104Z,6.90
2018-03-06T01:57:26.685Z,6.53
2018-03-06T01:59:54.232Z,6.97
2018-03-06T02:02:21.799Z,6.60
2018-03-06T02:04:49.384Z,5.53
2018-03-06T02:07:16.950Z,5.00
2018-03-06T02:09:44.529Z,5.40
2018-03-06T02:12:12.111Z,4.90
2018-03-06T02:14:39.851Z,4.47
2018-03-06T02:17:07.430Z,5.20
2018-03-06T02:19:34.997Z,5.83
2018-03-06T02:22:02.536Z,4.20
2018-03-06T02:24:30.073Z,4.57
2018-03-06T02:26:57.696Z,4.60
2018-03-06T02:29:25.233Z,5.20
2018-03-06T02:31:52.827Z,5.87
2018-03-06T02:34:20.673Z,5.40
2018-03-06T02:36:48.224Z,6.10
2018-03-06T02:39:15.934Z,6.70
2018-03-06T02:41:43.501Z,9.20
2018-03-06T02:44:11.070Z,8.50
2018-03-06T15:26:01.250Z,13.47
2018-03-06T15:28:28.795Z,14.80
2018-03-06T15:30:56.354Z,15.90
2018-03-06T15:33:23.953Z,20.57
2018-03-06T15:35:51.525Z,16.67
2018-03-06T15:38:19.065Z,18.27
2018-03-06T15:40:46.609Z,17.70
2018-03-06T15:43:14.177Z,19.63
2018-03-06T15:45:41.726Z,22.80
2018-03-06T15:48:09.339Z,25.10
2018-03-06T15:50:36.880Z,22.70
2018-03-06T15:53:04.433Z,20.37
2018-03-06T15:55:32.091Z,18.23
2018-03-06T15:57:59.627Z,20.90
2018-03-06T16:00:27.201Z,17.73
2018-03-06T16:02:54.718Z,19.10
2018-03-06T16:05:22.249Z,18.10
2018-03-06T16:07:49.770Z,17.20
2018-03-06T16:10:17.309Z,18.80
2018-03-06T16:12:44.840Z,19.40
2018-03-06T16:15:12.404Z,16.93
2018-03-06T16:17:39.909Z,18.43
2018-03-06T16:20:07.418Z,19.17
2018-03-06T16:22:34.960Z,21.33
2018-03-06T16:25:02.512Z,17.80
2018-03-06T16:27:30.035Z,23.90
2018-03-06T16:29:57.578Z,23.67
2018-03-06T16:32:25.108Z,24.70
2018-03-06T16:34:52.649Z,21.60
2018-03-06T16:37:20.168Z,23.00
2018-03-06T16:39:47.682Z,22.80
2018-03-06T16:42:15.219Z,21.93
2018-03-06T16:44:42.765Z,23.20
2018-03-06T16:47:10.320Z,28.50
2018-03-06T16:49:37.942Z,28.20
2018-03-06T16:52:05.562Z,27.37
2018-03-06T16:54:33.124Z,27.03
2018-03-06T16:57:00.691Z,18.70
2018-03-06T16:59:29.295Z,17.50
2018-03-06T17:01:56.827Z,14.37
2018-03-06T17:04:24.347Z,13.57
2018-03-06T17:06:51.924Z,16.90
2018-03-06T17:09:19.497Z,15.37
2018-03-06T17:11:47.181Z,18.93
2018-03-06T17:14:15.013Z,14.90
2018-03-06T17:16:42.666Z,13.40
2018-03-06T17:19:10.426Z,14.57
2018-03-06T17:21:37.988Z,14.10
2018-03-06T17:24:05.560Z,12.30
2018-03-06T17:26:33.135Z,14.30
2018-03-06T17:29:02.356Z,12.87
2018-03-06T17:31:29.955Z,15.67
2018-03-06T17:33:57.481Z,17.00
2018-03-06T17:36:25.053Z,17.50
2018-03-06T17:38:52.615Z,16.10
2018-03-06T17:41:21.111Z,15.07
2018-03-06T17:43:57.296Z,14.00
2018-03-06T17:46:25.181Z,15.33
2018-03-06T17:48:53.152Z,16.53
2018-03-06T17:51:20.956Z,16.80
2018-03-06T17:53:48.989Z,17.83
2018-03-06T17:56:16.662Z,17.60
2018-03-06T17:58:44.265Z,17.83
2018-03-06T18:01:11.831Z,18.00
2018-03-06T18:03:39.360Z,17.33
2018-03-06T18:06:07.048Z,18.20
2018-03-06T18:08:34.641Z,17.93
2018-03-06T18:11:02.188Z,13.70
2018-03-06T18:13:29.757Z,17.33
2018-03-06T18:15:57.268Z,18.63
2018-03-06T18:18:24.877Z,16.73
2018-03-06T18:20:52.429Z,17.20
2018-03-06T18:23:22.607Z,19.07
2018-03-06T18:25:50.210Z,17.20
2018-03-06T18:28:19.094Z,14.23
2018-03-06T18:30:46.821Z,18.43
2018-03-06T18:33:14.394Z,19.33
2018-03-06T18:35:41.933Z,18.27
2018-03-06T18:38:09.447Z,16.03
2018-03-06T18:40:37.644Z,17.77
2018-03-06T18:43:09.309Z,15.47
2018-03-06T18:45:40.032Z,13.47
2018-03-06T18:48:08.660Z,14.00
2018-03-06T18:50:59.771Z,14.93
2018-03-06T18:53:27.824Z,14.70
2018-03-06T18:55:58.507Z,15.13
2018-03-06T18:58:26.151Z,14.53
2018-03-06T19:01:19.444Z,15.37
2018-03-06T19:03:58.919Z,15.17
2018-03-06T19:06:36.174Z,16.10
2018-03-06T19:09:03.728Z,14.93
2018-03-06T19:11:31.298Z,16.70
2018-03-06T19:13:58.819Z,14.30
2018-03-06T19:16:26.353Z,14.70
2018-03-06T19:18:54.055Z,16.97
2018-03-06T19:21:21.624Z,19.20
2018-03-06T19:23:49.217Z,15.70
2018-03-06T19:26:17.622Z,12.80
2018-03-06T19:28:45.229Z,17.23
2018-03-06T19:31:12.982Z,16.83
2018-03-06T19:33:42.186Z,17.70
2018-03-06T19:36:10.576Z,15.17
2018-03-06T19:41:01.262Z,15.00
2018-03-06T19:43:29.091Z,15.10
2018-03-06T19:45:57.726Z,16.30
2018-03-06T19:48:26.246Z,13.97
2018-03-06T19:50:54.072Z,13.97
2018-03-06T19:53:21.796Z,12.37
2018-03-06T19:55:50.174Z,12.57
2018-03-06T19:58:18.439Z,10.47
2018-03-06T20:00:47.206Z,13.20
2018-03-06T20:03:15.059Z,14.10
2018-03-06T20:05:42.877Z,14.57
2018-03-06T20:08:11.462Z,14.27
2018-03-06T20:10:39.252Z,12.83
2018-03-06T20:13:08.117Z,14.73
2018-03-06T20:15:37.159Z,15.03
2018-03-06T20:18:05.133Z,14.73
2018-03-06T20:20:33.596Z,15.37
2018-03-06T20:23:01.362Z,13.47
2018-03-06T20:25:34.520Z,14.67
2018-03-06T20:28:02.498Z,14.70
2018-03-06T20:30:35.705Z,14.87
2018-03-06T20:33:08.768Z,14.53
2018-03-06T20:35:36.690Z,16.27
2018-03-06T20:38:04.789Z,15.63
2018-03-06T20:40:34.280Z,16.40
2018-03-06T20:43:01.869Z,14.57
2018-03-06T20:45:37.276Z,14.50
2018-03-06T20:48:04.987Z,13.27
2018-03-06T20:50:32.575Z,16.10
2018-03-06T20:56:05.399Z,16.60
2018-03-06T20:58:33.036Z,15.50
2018-03-06T21:01:00.597Z,16.50
2018-03-06T21:03:28.212Z,15.43
2018-03-06T21:05:55.794Z,14.80
2018-03-06T21:08:23.361Z,16.30
2018-03-06T21:10:50.906Z,14.20
2018-03-06T21:13:18.431Z,14.77
2018-03-06T21:15:46.078Z,15.73
2018-03-06T21:18:13.685Z,15.27
2018-03-06T21:20:42.225Z,14.40
2018-03-06T21:23:09.794Z,13.60
2018-03-06T21:25:37.806Z,10.83
2018-03-06T21:28:05.555Z,11.07
2018-03-06T21:30:33.151Z,10.30
2018-03-06T21:33:00.807Z,9.83
2018-03-06T21:35:29.579Z,10.93
2018-03-06T21:37:57.181Z,12.83
2018-03-06T21:40:25.880Z,10.10
2018-03-06T21:42:55.723Z,11.40
2018-03-06T21:45:23.315Z,9.93
2018-03-06T21:47:50.890Z,9.30
2018-03-06T21:50:18.670Z,11.87
2018-03-06T21:52:46.228Z,10.63
2018-03-06T21:55:13.744Z,10.03
2018-03-06T21:57:41.274Z,9.60
2018-03-06T22:00:08.904Z,10.30
2018-03-06T22:02:36.578Z,9.27
2018-03-06T22:05:04.374Z,11.20
2018-03-06T22:07:31.904Z,10.00
2018-03-06T22:09:59.545Z,11.53
2018-03-06T22:12:27.130Z,9.43
2018-03-06T22:14:54.651Z,10.97
2018-03-06T22:17:22.320Z,10.77
2018-03-06T22:19:49.884Z,12.10
2018-03-06T22:22:17.603Z,10.50
2018-03-06T22:24:45.205Z,11.23
2018-03-06T22:27:12.762Z,11.70
2018-03-06T22:29:40.357Z,11.37
2018-03-06T22:32:07.959Z,10.30
2018-03-06T22:34:35.553Z,10.20
2018-03-06T22:37:03.126Z,9.10
2018-03-06T22:39:30.654Z,8.27
2018-03-06T22:41:58.250Z,7.27
2018-03-06T22:44:25.808Z,8.53
2018-03-06T22:46:53.382Z,6.67
2018-03-06T22:49:20.966Z,7.53
2018-03-06T22:51:48.518Z,7.90
2018-03-06T22:54:16.098Z,8.23
2018-03-06T22:56:43.778Z,6.50
2018-03-06T22:59:11.313Z,6.17
2018-03-06T23:01:38.953Z,7.20
2018-03-06T23:04:06.522Z,7.90
2018-03-06T23:06:34.073Z,6.70
2018-03-06T23:09:01.615Z,7.53
2018-03-06T23:11:29.161Z,6.80
2018-03-06T23:13:56.725Z,8.20
2018-03-06T23:16:24.307Z,8.80
2018-03-06T23:18:51.818Z,7.93
2018-03-06T23:21:19.401Z,7.20
2018-03-06T23:23:46.977Z,9.13
2018-03-06T23:26:14.595Z,9.30
2018-03-06T23:28:42.142Z,8.07
2018-03-06T23:31:13.814Z,9.97
2018-03-06T23:33:41.540Z,8.77
2018-03-06T23:36:09.154Z,10.40
2018-03-06T23:38:36.681Z,10.30
2018-03-06T23:41:04.232Z,10.40
2018-03-06T23:43:31.905Z,10.10
2018-03-06T23:45:59.523Z,9.13
2018-03-06T23:48:27.077Z,9.57
2018-03-06T23:50:54.645Z,11.20
2018-03-06T23:53:22.208Z,7.83
2018-03-06T23:55:49.852Z,7.77
2018-03-06T23:58:17.413Z,9.03
